Time;durP1;ratioP1;P1;durP2;ratioP2;P2;SDS_P1;SDS_P2;PMS_P1;PMS_P2;Temp;Humidity;BMP_temperature;BMP_pressure;BME280_temperature;BME280_humidity;BME280_pressure;Samples;Min_cycle;Max_cycle;Signal;HPM_P1;HPM_P2
2022/12/01 00:00:38;;;;;;;39.05;19.17;;;;;;;7.00;80.43;102605.44;5087780;28;20497;-91
2022/12/01 00:03:03;;;;;;;39.92;18.95;;;;;;;7.00;80.28;102611.56;5092137;28;20061;-91
2022/12/01 00:05:29;;;;;;;45.33;19.58;;;;;;;7.02;80.29;102614.19;5091473;28;20028;-91
2022/12/01 00:07:56;;;;;;;42.65;19.08;;;;;;;7.00;80.13;102606.31;5072150;28;20028;-91
2022/12/01 00:10:27;;;;;;;40.90;18.38;;;;;;;6.96;80.50;102598.41;5092110;28;20599;-90
2022/12/01 00:13:01;;;;;;;41.55;18.85;;;;;;;7.04;80.42;102602.81;5086942;28;20546;-90
2022/12/01 00:15:30;;;;;;;43.97;20.05;;;;;;;6.97;80.02;102603.66;5089957;28;20020;-90
2022/12/01 00:17:56;;;;;;;44.55;18.65;;;;;;;7.06;80.59;102611.59;5082549;28;20020;-90
2022/12/01 00:20:21;;;;;;;47.10;19.77;;;;;;;7.06;80.41;102603.69;5084958;28;20023;-90
2022/12/01 00:22:47;;;;;;;49.88;21.25;;;;;;;6.99;80.54;102588.75;5062102;28;20080;-90
2022/12/01 00:25:15;;;;;;;46.65;20.35;;;;;;;7.08;80.46;102593.16;5068486;28;20024;-89
2022/12/01 00:27:40;;;;;;;40.72;18.98;;;;;;;6.97;80.63;102595.78;5087788;28;20492;-90
2022/12/01 00:30:09;;;;;;;43.67;18.92;;;;;;;7.06;80.79;102597.56;5071590;28;20051;-90
2022/12/01 00:32:34;;;;;;;40.30;17.98;;;;;;;6.98;80.57;102588.75;5076114;28;20459;-90
2022/12/01 00:35:00;;;;;;;48.80;19.85;;;;;;;7.00;80.56;102598.44;5093739;28;20055;-90
2022/12/01 00:37:25;;;;;;;44.13;19.70;;;;;;;6.97;80.56;102593.16;5091209;28;20060;-90
2022/12/01 00:39:50;;;;;;;47.90;19.10;;;;;;;6.97;80.63;102589.66;5072491;28;20233;-89
2022/12/01 00:42:16;;;;;;;49.15;20.13;;;;;;;6.99;80.83;102601.03;5069622;28;20023;-89
2022/12/01 00:44:41;;;;;;;49.67;21.17;;;;;;;6.95;80.72;102592.28;5101941;28;20111;-90
2022/12/01 00:47:06;;;;;;;49.17;21.67;;;;;;;6.97;81.09;102600.16;5064776;28;20055;-90
2022/12/01 00:49:31;;;;;;;50.63;21.10;;;;;;;6.98;81.03;102589.63;5092396;28;20030;-89
2022/12/01 00:51:57;;;;;;;47.03;19.75;;;;;;;6.96;81.00;102590.53;5067083;28;20031;-90
2022/12/01 00:54:22;;;;;;;49.42;20.48;;;;;;;7.00;81.11;102602.81;5080876;28;20028;-89
2022/12/01 00:56:47;;;;;;;51.55;20.88;;;;;;;6.98;80.93;102591.38;5090527;28;20107;-90
2022/12/01 00:59:13;;;;;;;54.10;19.55;;;;;;;7.29;79.86;102592.34;5091782;28;20434;-90
2022/12/01 01:01:38;;;;;;;52.38;21.83;;;;;;;7.02;80.86;102603.69;5087688;28;20044;-90
2022/12/01 01:04:04;;;;;;;50.85;21.80;;;;;;;6.95;80.69;102597.53;5074357;28;20021;-90
2022/12/01 01:06:29;;;;;;;54.45;21.23;;;;;;;6.95;80.98;102597.53;5084091;28;20024;-90
2022/12/01 01:08:54;;;;;;;58.53;21.02;;;;;;;6.94;81.26;102608.91;5090382;28;20027;-90
2022/12/01 01:11:20;;;;;;;53.78;21.42;;;;;;;6.87;81.49;102594.00;5088978;28;20035;-89
2022/12/01 01:13:45;;;;;;;63.95;22.63;;;;;;;6.89;81.47;102605.38;5072514;28;20455;-90
2022/12/01 01:16:20;;;;;;;59.33;22.42;;;;;;;6.96;81.26;102607.19;5070075;28;20485;-90
2022/12/01 01:18:45;;;;;;;55.75;22.15;;;;;;;6.88;81.03;102604.50;5063777;28;20311;-90
2022/12/01 01:21:14;;;;;;;56.83;21.52;;;;;;;6.90;81.26;102615.03;5072316;28;20073;-89
2022/12/01 01:23:39;;;;;;;56.92;21.10;;;;;;;6.90;81.06;102617.66;5089978;28;20035;-90
2022/12/01 01:26:11;;;;;;;55.05;21.42;;;;;;;6.94;81.07;102624.69;5086012;28;20024;-90
2022/12/01 01:28:37;;;;;;;;;;;;;;;7.03;80.63;102623.84;5083896;28;20027;-90
2022/12/01 01:31:11;;;;;;;55.10;20.35;;;;;;;6.92;81.22;102617.69;5087467;28;20090;-90
2022/12/01 01:33:36;;;;;;;52.92;20.10;;;;;;;6.89;80.75;102623.78;5086445;28;20032;-90
2022/12/01 01:36:02;;;;;;;47.13;19.48;;;;;;;6.86;80.90;102627.31;5062152;28;20283;-90
2022/12/01 01:38:29;;;;;;;51.45;20.42;;;;;;;6.88;80.65;102630.78;5067003;28;20103;-90
2022/12/01 01:40:55;;;;;;;47.38;18.52;;;;;;;6.85;80.54;102632.53;5063236;28;20035;-90
2022/12/01 01:43:46;;;;;;;47.45;20.17;;;;;;;6.91;80.83;102637.84;5063376;28;20037;-90
2022/12/01 01:46:15;;;;;;;47.35;18.48;;;;;;;6.83;81.06;102629.03;5066702;28;20017;-90
2022/12/01 01:48:44;;;;;;;49.60;19.55;;;;;;;6.81;80.75;102626.41;5068819;28;20032;-90
2022/12/01 01:51:12;;;;;;;48.83;19.08;;;;;;;6.94;80.48;102639.56;5056935;28;20056;-90
2022/12/01 01:53:37;;;;;;;46.95;19.48;;;;;;;6.84;80.63;102633.41;5060071;28;20024;-90
2022/12/01 01:56:04;;;;;;;46.90;20.27;;;;;;;6.82;81.10;102632.53;5065460;28;20040;-90
2022/12/01 01:58:32;;;;;;;51.25;19.83;;;;;;;6.81;80.92;102631.66;5069256;28;20090;-90
2022/12/01 02:00:57;;;;;;;49.88;20.17;;;;;;;6.83;81.16;102631.66;5062533;28;20111;-90
2022/12/01 02:03:23;;;;;;;56.35;21.40;;;;;;;6.89;81.15;102639.56;5067649;28;20070;-90
2022/12/01 02:05:49;;;;;;;52.13;20.67;;;;;;;6.83;81.21;102631.66;5068404;28;20032;-90
2022/12/01 02:08:14;;;;;;;48.05;19.55;;;;;;;6.78;81.20;102618.50;5064118;28;20086;-90
2022/12/01 02:10:51;;;;;;;57.28;20.90;;;;;;;6.86;80.79;102629.94;5068455;28;20065;-90
2022/12/01 02:13:39;;;;;;;51.80;21.17;;;;;;;6.86;81.21;102629.94;5079733;28;20507;-90
2022/12/01 02:16:20;;;;;;;52.33;19.27;;;;;;;6.91;81.44;102637.84;5063598;28;20035;-90
2022/12/01 02:18:54;;;;;;;47.42;18.80;;;;;;;6.95;81.00;102638.69;5059618;28;20412;-91
2022/12/01 02:21:35;;;;;;;49.78;19.85;;;;;;;6.87;81.18;102621.16;5064875;28;20056;-90
2022/12/01 02:24:10;;;;;;;53.90;21.05;;;;;;;6.92;81.01;102630.81;5070619;28;20040;-90
2022/12/01 02:26:47;;;;;;;48.38;19.23;;;;;;;6.95;81.51;102628.19;5059896;28;20040;-90
2022/12/01 02:29:38;;;;;;;54.13;20.90;;;;;;;6.95;81.25;102629.09;5066853;28;20039;-90
2022/12/01 02:32:41;;;;;;;56.00;19.42;;;;;;;7.01;81.08;102634.34;5058956;28;20027;-90
2022/12/01 02:35:53;;;;;;;51.42;19.45;;;;;;;7.00;80.74;102634.38;5068116;28;20399;-90
2022/12/01 02:38:27;;;;;;;48.03;18.98;;;;;;;6.92;80.88;102639.59;5084769;28;20502;-90
2022/12/01 02:40:59;;;;;;;53.03;20.85;;;;;;;6.91;81.33;102635.19;5069005;28;20019;-90
2022/12/01 02:43:34;;;;;;;54.50;20.90;;;;;;;6.96;80.72;102638.72;5068141;28;20028;-91
2022/12/01 02:46:11;;;;;;;56.10;21.73;;;;;;;6.92;80.96;102628.19;5068621;28;20035;-90
2022/12/01 02:48:39;;;;;;;45.90;19.45;;;;;;;6.90;80.84;102636.97;5082610;28;20414;-90
2022/12/01 02:51:13;;;;;;;55.05;21.13;;;;;;;6.80;81.11;102624.63;5063140;28;20062;-90
2022/12/01 02:53:38;;;;;;;49.88;20.58;;;;;;;6.80;81.11;102634.25;5089077;28;20117;-90
2022/12/01 02:56:10;;;;;;;53.47;21.02;;;;;;;6.88;81.26;102641.31;5089104;28;20108;-90
2022/12/01 02:58:36;;;;;;;52.33;20.17;;;;;;;6.80;80.87;102629.00;5090296;28;20028;-90
2022/12/01 03:01:19;;;;;;;53.55;20.25;;;;;;;6.84;80.94;102642.16;5089403;28;20020;-90
2022/12/01 03:04:03;;;;;;;57.95;22.20;;;;;;;6.85;80.95;102643.94;5070609;28;20031;-90
2022/12/01 03:06:34;;;;;;;54.55;21.92;;;;;;;6.84;81.21;102646.56;5082850;28;20502;-90
2022/12/01 03:09:31;;;;;;;55.75;20.83;;;;;;;6.86;81.34;102635.19;5072384;28;20499;-90
2022/12/01 03:12:14;;;;;;;52.92;20.40;;;;;;;6.82;81.32;102636.03;5047779;28;20096;-90
2022/12/01 03:14:54;;;;;;;49.70;21.25;;;;;;;6.83;81.52;102639.53;5073423;28;20119;-90
2022/12/01 03:17:27;;;;;;;50.25;20.50;;;;;;;6.75;81.39;102634.25;5066879;28;20503;-90
2022/12/01 03:20:07;;;;;;;57.25;22.30;;;;;;;6.75;81.18;102634.25;5076167;28;20053;-90
2022/12/01 03:22:43;;;;;;;57.47;22.45;;;;;;;6.79;81.83;102651.78;5089273;28;20479;-90
2022/12/01 03:25:10;;;;;;;51.47;21.05;;;;;;;6.77;81.45;102634.28;5084688;28;20118;-90
2022/12/01 03:27:41;;;;;;;49.50;21.08;;;;;;;6.72;81.58;102626.38;5065302;28;20037;-90
2022/12/01 03:30:09;;;;;;;47.08;19.67;;;;;;;6.78;81.41;102633.41;5070787;28;20024;-91
2022/12/01 03:32:48;;;;;;;51.90;20.17;;;;;;;6.80;81.32;102637.78;5070290;28;20364;-90
2022/12/01 03:35:19;;;;;;;52.72;20.42;;;;;;;6.78;81.54;102636.03;5071296;28;20035;-90
2022/12/01 03:37:59;;;;;;;47.97;19.40;;;;;;;6.83;81.34;102639.53;5083884;28;20145;-90
2022/12/01 03:40:29;;;;;;;48.08;20.52;;;;;;;6.90;80.95;102631.69;5073098;28;20020;-90
2022/12/01 03:43:02;;;;;;;47.03;19.92;;;;;;;6.81;81.28;102634.28;5085547;28;20024;-90
2022/12/01 03:45:39;;;;;;;48.15;21.20;;;;;;;6.82;81.35;102643.94;5058082;28;20044;-90
2022/12/01 03:48:06;;;;;;;51.63;22.50;;;;;;;6.76;81.21;102624.59;5073273;28;20526;-90
2022/12/01 03:50:41;;;;;;;52.67;20.25;;;;;;;6.82;81.52;102629.91;5086321;28;20131;-90
2022/12/01 03:53:18;;;;;;;49.55;20.08;;;;;;;6.90;81.37;102636.06;5091723;28;20128;-90
2022/12/01 03:55:49;;;;;;;47.85;20.73;;;;;;;6.84;81.22;102634.28;5073126;28;20459;-90
2022/12/01 03:58:24;;;;;;;50.85;20.17;;;;;;;6.81;81.70;102636.91;5086155;28;20024;-90
2022/12/01 04:00:54;;;;;;;45.30;18.60;;;;;;;6.86;81.45;102645.69;5090706;28;20019;-90
2022/12/01 04:03:23;;;;;;;50.00;20.02;;;;;;;6.85;81.42;102643.03;5069637;28;20028;-90
2022/12/01 04:05:49;;;;;;;45.78;20.50;;;;;;;6.83;81.64;102639.53;5090230;28;20032;-91
2022/12/01 04:08:14;;;;;;;48.95;19.38;;;;;;;6.88;81.21;102646.56;5088261;28;20036;-90
2022/12/01 04:10:39;;;;;;;41.05;19.08;;;;;;;6.92;81.16;102638.72;5070721;28;20039;-90
2022/12/01 04:13:05;;;;;;;46.72;19.48;;;;;;;6.92;81.12;102649.22;5091295;28;20023;-90
2022/12/01 04:15:30;;;;;;;49.17;20.05;;;;;;;6.88;81.39;102648.31;5069852;28;20017;-91
2022/12/01 04:17:55;;;;;;;44.22;19.23;;;;;;;6.98;80.66;102643.97;5069724;28;20368;-91
2022/12/01 04:20:21;;;;;;;46.67;19.38;;;;;;;7.00;80.77;102637.88;5073746;28;20019;-90
2022/12/01 04:22:47;;;;;;;48.30;20.35;;;;;;;7.04;80.76;102651.88;5088891;28;20532;-90
2022/12/01 04:25:12;;;;;;;44.35;19.70;;;;;;;7.04;80.77;102649.25;5070402;28;20524;-90
2022/12/01 04:27:38;;;;;;;45.00;18.92;;;;;;;7.00;81.19;102642.25;5086319;28;20033;-90
2022/12/01 04:30:05;;;;;;;44.17;19.30;;;;;;;7.01;80.81;102647.50;5091653;28;20040;-90
2022/12/01 04:32:30;;;;;;;46.80;19.92;;;;;;;6.99;80.90;102646.59;5071008;28;20035;-90
2022/12/01 04:34:55;;;;;;;47.45;20.02;;;;;;;7.02;80.93;102640.50;5084615;28;20032;-91
2022/12/01 04:37:21;;;;;;;47.72;20.38;;;;;;;6.93;81.10;102635.19;5072823;28;20051;-90
2022/12/01 04:39:46;;;;;;;42.83;18.88;;;;;;;6.96;80.92;102640.47;5067787;28;20024;-90
2022/12/01 04:42:11;;;;;;;48.95;21.13;;;;;;;6.92;80.92;102639.59;5073005;28;20135;-90
2022/12/01 04:44:36;;;;;;;46.53;19.27;;;;;;;6.92;81.37;102643.97;5071366;28;20028;-91
2022/12/01 04:47:04;;;;;;;50.55;20.30;;;;;;;6.89;81.38;102632.53;5091527;28;20118;-90
2022/12/01 04:49:30;;;;;;;47.85;21.17;;;;;;;6.83;81.71;102640.41;5089395;28;20119;-90
2022/12/01 04:51:55;;;;;;;48.45;19.50;;;;;;;6.80;81.79;102639.53;5087303;28;20027;-91
2022/12/01 04:54:21;;;;;;;45.75;19.73;;;;;;;6.76;82.03;102640.38;5070846;28;20032;-91
2022/12/01 04:56:46;;;;;;;47.25;19.85;;;;;;;6.73;82.05;102649.16;5071756;28;20149;-91
2022/12/01 04:59:12;;;;;;;42.40;18.52;;;;;;;6.75;81.93;102644.75;5091293;28;20035;-91
2022/12/01 05:01:37;;;;;;;42.75;20.33;;;;;;;6.83;81.56;102639.53;5089714;28;20031;-91
2022/12/01 05:04:03;;;;;;;44.42;19.83;;;;;;;6.76;81.73;102638.66;5071911;28;20036;-91
2022/12/01 05:06:28;;;;;;;42.80;19.73;;;;;;;6.75;81.85;102634.25;5071116;28;20024;-91
2022/12/01 05:08:59;;;;;;;45.55;19.35;;;;;;;6.78;82.02;102639.53;5086359;28;20445;-90
2022/12/01 05:11:27;;;;;;;45.30;19.55;;;;;;;6.88;81.58;102643.94;5066951;28;20031;-91
2022/12/01 05:13:53;;;;;;;43.00;18.65;;;;;;;6.86;81.02;102635.19;5073497;28;20512;-90
2022/12/01 05:16:21;;;;;;;49.50;20.50;;;;;;;6.92;81.26;102644.84;5070433;28;20032;-90
2022/12/01 05:20:55;;;;;;;42.40;19.50;;;;;;;6.91;81.14;102645.72;5071188;28;20026;-90
2022/12/01 05:21:37;;;;;;;45.95;20.40;;;;;;;6.87;81.12;102638.69;5090014;28;20036;-91
2022/12/01 05:24:03;;;;;;;41.92;18.55;;;;;;;6.86;81.18;102640.44;5094910;28;20028;-90
2022/12/01 05:26:28;;;;;;;40.97;18.88;;;;;;;6.95;80.68;102642.22;5061179;28;20024;-90
2022/12/01 05:28:53;;;;;;;44.65;19.10;;;;;;;6.87;80.72;102638.69;5074169;28;20282;-90
2022/12/01 05:31:19;;;;;;;45.67;19.45;;;;;;;6.97;80.60;102640.47;5088917;28;20053;-90
2022/12/01 05:33:44;;;;;;;40.95;19.55;;;;;;;6.84;80.77;102644.81;5089430;28;20024;-91
2022/12/01 05:36:09;;;;;;;43.35;18.77;;;;;;;6.83;81.02;102645.69;5087710;28;20040;-90
2022/12/01 05:38:34;;;;;;;46.70;19.17;;;;;;;6.82;80.93;102648.31;5072373;28;20020;-90
2022/12/01 05:41:00;;;;;;;43.67;18.50;;;;;;;6.79;81.13;102656.16;5071022;28;20463;-90
2022/12/01 05:43:25;;;;;;;42.13;18.85;;;;;;;6.78;81.08;102651.78;5079699;28;20063;-90
2022/12/01 05:45:50;;;;;;;40.83;19.30;;;;;;;6.82;81.39;102649.19;5063200;28;20467;-90
2022/12/01 05:48:16;;;;;;;50.22;20.20;;;;;;;6.83;81.35;102647.44;5067923;28;20027;-90
2022/12/01 05:50:42;;;;;;;41.50;18.10;;;;;;;6.81;81.34;102644.81;5068864;28;20035;-90
2022/12/01 05:53:10;;;;;;;44.75;20.25;;;;;;;6.81;81.13;102646.56;5068841;28;20031;-90
2022/12/01 05:55:35;;;;;;;44.65;18.70;;;;;;;6.83;81.26;102647.44;5079382;28;20040;-90
2022/12/01 05:58:01;;;;;;;39.97;18.50;;;;;;;6.84;81.22;102652.69;5067951;28;20497;-91
2022/12/01 06:00:27;;;;;;;44.22;19.20;;;;;;;6.87;81.19;102652.72;5087730;28;20036;-91
2022/12/01 06:02:52;;;;;;;46.65;19.58;;;;;;;6.86;81.31;102652.72;5068519;28;20024;-90
2022/12/01 06:05:18;;;;;;;49.40;19.40;;;;;;;6.85;80.92;102656.19;5070980;28;20041;-90
2022/12/01 06:07:43;;;;;;;46.70;20.15;;;;;;;6.80;81.08;102642.16;5069257;28;20031;-90
2022/12/01 06:10:09;;;;;;;48.25;21.10;;;;;;;6.79;81.32;102650.91;5082040;28;20023;-90
2022/12/01 06:12:35;;;;;;;44.05;19.70;;;;;;;6.81;81.02;102657.06;5065747;28;20418;-90
2022/12/01 06:15:01;;;;;;;47.00;20.05;;;;;;;6.87;81.42;102665.84;5090285;28;20024;-89
2022/12/01 06:17:26;;;;;;;44.28;19.45;;;;;;;6.82;81.03;102650.94;5086950;28;20047;-89
2022/12/01 06:19:51;;;;;;;48.63;19.02;;;;;;;6.84;81.33;102664.97;5089185;28;20379;-90
2022/12/01 06:22:16;;;;;;;42.38;19.80;;;;;;;6.84;81.24;102654.44;5066894;28;20033;-89
2022/12/01 06:24:42;;;;;;;47.22;20.13;;;;;;;6.85;81.01;102656.19;5088151;28;20058;-90
2022/12/01 06:27:07;;;;;;;52.95;20.95;;;;;;;6.79;81.05;102651.78;5062859;28;20544;-89
2022/12/01 06:29:32;;;;;;;48.97;19.60;;;;;;;6.80;81.05;102660.56;5071238;28;20078;-90
2022/12/01 06:31:58;;;;;;;49.92;20.13;;;;;;;6.74;81.29;102655.28;5088994;28;20474;-90
2022/12/01 06:34:23;;;;;;;46.33;19.17;;;;;;;6.74;81.14;102665.78;5065964;28;20032;-91
2022/12/01 06:36:49;;;;;;;49.53;21.15;;;;;;;6.70;81.51;102654.38;5065806;28;20048;-90
2022/12/01 06:39:15;;;;;;;47.83;20.33;;;;;;;6.70;81.27;102659.63;5080172;28;20391;-90
2022/12/01 06:41:41;;;;;;;48.08;19.20;;;;;;;6.71;81.57;102663.13;5066345;28;20027;-89
2022/12/01 06:44:06;;;;;;;49.00;21.20;;;;;;;6.75;81.31;102663.16;5088224;28;20024;-89
2022/12/01 06:46:31;;;;;;;42.97;20.00;;;;;;;6.75;81.49;102673.66;5087383;28;20024;-90
2022/12/01 06:48:57;;;;;;;49.17;18.27;;;;;;;6.71;81.34;102666.63;5070524;28;20036;-89
2022/12/01 06:51:22;;;;;;;48.50;20.13;;;;;;;6.72;81.13;102665.78;5068607;28;20151;-90
2022/12/01 06:53:55;;;;;;;52.92;18.90;;;;;;;6.77;81.18;102679.84;5086072;28;20471;-90
2022/12/01 06:56:21;;;;;;;42.88;18.40;;;;;;;6.80;81.05;102686.84;5070474;28;20097;-90
2022/12/01 06:58:48;;;;;;;50.50;19.30;;;;;;;6.79;80.97;102687.72;5089425;28;20105;-90
2022/12/01 07:01:16;;;;;;;45.55;19.42;;;;;;;6.82;81.02;102690.38;5087458;28;20166;-91
2022/12/01 07:03:42;;;;;;;44.53;18.55;;;;;;;6.78;80.74;102693.84;5080766;28;20062;-90
2022/12/01 07:06:08;;;;;;;53.58;19.48;;;;;;;6.77;81.01;102692.09;5084209;28;20419;-90
2022/12/01 07:08:34;;;;;;;43.58;18.85;;;;;;;6.81;80.93;102696.50;5086948;28;20028;-90
2022/12/01 07:11:06;;;;;;;49.15;20.63;;;;;;;6.77;80.79;102697.38;5087864;28;20028;-91
2022/12/01 07:13:32;;;;;;;48.47;18.70;;;;;;;6.81;81.03;102697.38;5067126;28;20020;-90
2022/12/01 07:15:57;;;;;;;48.00;19.58;;;;;;;6.78;81.13;102693.84;5086178;28;20032;-91
2022/12/01 07:18:23;;;;;;;45.95;18.95;;;;;;;6.78;81.03;102699.13;5067335;28;20020;-90
2022/12/01 07:20:48;;;;;;;43.78;19.40;;;;;;;6.80;80.96;102707.88;5066741;28;20024;-92
2022/12/01 07:23:13;;;;;;;42.75;18.33;;;;;;;6.80;80.64;102702.59;5064789;28;20032;-92
2022/12/01 07:25:39;;;;;;;44.35;18.95;;;;;;;6.87;80.00;102709.69;5070086;28;20070;-92
2022/12/01 07:28:04;;;;;;;41.33;18.90;;;;;;;6.78;80.24;102699.13;5089022;28;20070;-90
2022/12/01 07:30:30;;;;;;;41.78;18.67;;;;;;;6.82;80.39;102703.53;5067172;28;20471;-90
2022/12/01 07:32:55;;;;;;;44.38;19.30;;;;;;;6.83;80.16;102708.78;5057550;28;20487;-91
2022/12/01 07:35:21;;;;;;;47.28;19.90;;;;;;;6.82;80.14;102700.88;5081915;28;20552;-90
2022/12/01 07:37:46;;;;;;;44.92;18.45;;;;;;;6.82;80.08;102708.78;5066428;28;20032;-90
2022/12/01 07:40:13;;;;;;;47.88;18.75;;;;;;;6.81;80.08;102705.28;5069528;28;20030;-91
2022/12/01 07:42:41;;;;;;;43.75;19.10;;;;;;;6.85;80.14;102709.69;5084354;28;20444;-90
2022/12/01 07:45:07;;;;;;;42.47;19.38;;;;;;;6.85;80.49;102707.06;5084092;28;20089;-90
2022/12/01 07:47:32;;;;;;;44.72;19.10;;;;;;;6.90;80.44;102714.94;5066758;28;20020;-90
2022/12/01 07:49:57;;;;;;;46.55;19.20;;;;;;;6.89;79.97;102715.81;5069360;28;20543;-91
2022/12/01 07:52:23;;;;;;;44.30;18.98;;;;;;;6.88;79.87;102717.56;5076163;28;20024;-90
2022/12/01 07:54:48;;;;;;;46.38;20.25;;;;;;;6.90;80.32;102709.66;5092092;28;20028;-90
2022/12/01 07:57:13;;;;;;;44.92;18.55;;;;;;;6.89;80.15;102698.28;5080117;28;20020;-91
2022/12/01 07:59:39;;;;;;;50.25;20.38;;;;;;;6.95;79.95;102717.59;5073463;28;20115;-90
2022/12/01 08:02:04;;;;;;;47.65;21.13;;;;;;;6.92;79.62;102709.69;5067426;28;20020;-90
2022/12/01 08:04:30;;;;;;;46.72;20.33;;;;;;;6.98;79.15;102713.22;5091018;28;20036;-91
2022/12/01 08:06:55;;;;;;;48.28;19.95;;;;;;;7.00;79.50;102722.03;5087780;28;20028;-90
2022/12/01 08:09:20;;;;;;;45.85;20.85;;;;;;;7.05;79.36;102729.94;5086801;28;20020;-90
2022/12/01 08:11:45;;;;;;;45.22;18.85;;;;;;;7.03;79.58;102729.03;5088020;28;20016;-90
2022/12/01 08:14:11;;;;;;;43.55;21.23;;;;;;;7.01;79.46;102733.41;5087278;28;20024;-90
2022/12/01 08:16:36;;;;;;;50.22;19.92;;;;;;;7.03;79.07;102735.16;5073301;28;20487;-91
2022/12/01 08:19:01;;;;;;;44.55;19.35;;;;;;;6.97;78.61;102731.63;5087431;28;20059;-90
2022/12/01 08:21:27;;;;;;;44.50;19.27;;;;;;;6.97;78.92;102731.63;5073070;28;20487;-90
2022/12/01 08:23:54;;;;;;;48.28;19.48;;;;;;;6.92;78.39;102726.34;5084081;28;20024;-89
2022/12/01 08:26:21;;;;;;;44.42;18.90;;;;;;;6.95;78.71;102734.25;5070777;28;20024;-91
2022/12/01 08:28:46;;;;;;;45.40;20.58;;;;;;;7.00;78.67;102737.78;5080352;28;20438;-91
2022/12/01 08:31:15;;;;;;;44.55;21.58;;;;;;;7.02;78.79;102741.28;5090653;28;20024;-90
2022/12/01 08:33:40;;;;;;;48.05;20.48;;;;;;;7.03;78.47;102742.19;5071239;28;20036;-90
2022/12/01 08:36:06;;;;;;;46.42;20.48;;;;;;;7.08;78.45;102743.94;5091700;28;20043;-88
2022/12/01 08:38:32;;;;;;;48.50;21.13;;;;;;;7.14;78.12;102745.75;5069047;28;20020;-90
2022/12/01 08:41:03;;;;;;;44.55;19.83;;;;;;;7.19;78.42;102748.41;5091610;28;20054;-90
2022/12/01 08:43:28;;;;;;;45.53;19.92;;;;;;;7.12;78.17;102735.22;5072474;28;20464;-90
2022/12/01 08:45:57;;;;;;;44.00;20.25;;;;;;;7.16;78.29;102744.88;5088670;28;20202;-91
2022/12/01 08:48:22;;;;;;;47.72;22.02;;;;;;;7.15;77.89;102742.25;5085544;28;20024;-90
2022/12/01 08:50:48;;;;;;;43.63;20.48;;;;;;;7.20;78.26;102743.16;5069621;28;20026;-91
2022/12/01 08:53:13;;;;;;;41.35;19.45;;;;;;;7.21;77.48;102742.25;5070356;28;20028;-90
2022/12/01 08:55:38;;;;;;;42.10;19.63;;;;;;;7.23;77.61;102745.78;5084364;28;20511;-90
2022/12/01 08:58:03;;;;;;;45.53;20.30;;;;;;;7.21;77.85;102744.91;5067222;28;20066;-90
2022/12/01 09:00:29;;;;;;;48.08;21.35;;;;;;;7.21;77.75;102721.22;5062110;28;20030;-90
2022/12/01 09:02:54;;;;;;;45.80;20.38;;;;;;;7.37;77.74;102752.00;5086325;28;20020;-90
2022/12/01 09:05:19;;;;;;;46.65;20.63;;;;;;;7.38;77.63;102742.34;5085916;28;20042;-90
2022/12/01 09:08:29;;;;;;;43.72;20.40;;;;;;;7.40;76.88;102748.47;5087117;28;20380;-90
2022/12/01 09:10:30;;;;;;;40.25;18.83;;;;;;;7.42;76.71;102749.38;5094442;28;20039;-90
2022/12/01 09:12:56;;;;;;;40.97;19.42;;;;;;;7.46;77.21;102753.78;5075242;28;20478;-90
2022/12/01 09:15:21;;;;;;;47.42;20.30;;;;;;;7.45;76.58;102743.22;5070189;28;20028;-90
2022/12/01 09:17:46;;;;;;;43.63;19.10;;;;;;;7.46;76.52;102744.97;5088451;28;20031;-90
2022/12/01 09:20:12;;;;;;;44.72;20.17;;;;;;;7.51;76.21;102752.03;5079103;28;20031;-90
2022/12/01 09:22:37;;;;;;;43.15;21.00;;;;;;;7.56;76.51;102747.66;5086537;28;20467;-90
2022/12/01 09:25:03;;;;;;;46.83;20.02;;;;;;;7.74;75.58;102744.22;5067627;28;20032;-90
2022/12/01 09:27:28;;;;;;;43.80;19.67;;;;;;;7.84;75.68;102753.88;5087106;28;20059;-90
2022/12/01 09:29:53;;;;;;;45.13;20.50;;;;;;;7.92;75.78;102751.22;5071176;28;20075;-90
2022/12/01 09:32:19;;;;;;;48.20;20.58;;;;;;;8.01;74.85;102750.38;5087230;28;20039;-90
2022/12/01 09:34:44;;;;;;;43.95;20.55;;;;;;;8.09;74.46;102756.53;5081219;28;20023;-90
2022/12/01 09:37:09;;;;;;;41.85;20.30;;;;;;;8.01;74.59;102759.16;5068827;28;20052;-90
2022/12/01 09:39:35;;;;;;;45.25;20.02;;;;;;;8.07;74.49;102758.31;5088832;28;20498;-90
2022/12/01 09:42:12;;;;;;;48.88;21.00;;;;;;;8.13;74.57;102753.91;5088981;28;20054;-90
2022/12/01 09:44:47;;;;;;;45.78;19.38;;;;;;;8.19;74.10;102753.91;5067560;28;20566;-90
2022/12/01 09:47:19;;;;;;;45.28;21.55;;;;;;;8.10;73.14;102740.72;5070006;28;20069;-90
2022/12/01 09:50:18;;;;;;;45.70;20.73;;;;;;;8.31;74.17;102755.69;5086715;28;20414;-90
2022/12/01 09:52:49;;;;;;;48.35;21.30;;;;;;;8.32;73.41;102756.56;5083735;28;20020;-90
2022/12/01 09:55:17;;;;;;;45.10;19.85;;;;;;;8.29;73.03;102752.13;5079731;28;20502;-90
2022/12/01 09:57:47;;;;;;;47.05;20.92;;;;;;;8.24;72.37;102743.34;5087723;28;20024;-90
2022/12/01 10:00:17;;;;;;;50.75;23.10;;;;;;;8.34;72.45;102755.66;5087027;28;20023;-90
2022/12/01 10:02:51;;;;;;;46.50;20.42;;;;;;;8.43;72.09;102746.91;5067735;28;20024;-90
2022/12/01 10:05:24;;;;;;;46.47;22.38;;;;;;;8.46;71.67;102741.63;5069764;28;20493;-90
2022/12/01 10:07:56;;;;;;;47.40;20.95;;;;;;;8.51;71.75;102737.25;5085064;28;20548;-90
2022/12/01 10:10:29;;;;;;;49.00;21.38;;;;;;;8.50;71.88;102737.25;5066953;28;20463;-90
2022/12/01 10:12:55;;;;;;;50.20;21.55;;;;;;;8.50;71.64;102743.41;5088559;28;20016;-90
2022/12/01 10:15:21;;;;;;;48.20;20.25;;;;;;;8.56;71.06;102753.94;5087198;28;20038;-90
2022/12/01 10:17:59;;;;;;;46.20;20.55;;;;;;;8.50;71.13;102738.13;5083769;28;20391;-90
2022/12/01 10:20:38;;;;;;;42.15;19.33;;;;;;;8.49;71.28;102749.56;5069929;28;20020;-90
2022/12/01 10:23:28;;;;;;;47.13;20.58;;;;;;;8.53;71.29;102739.88;5072666;28;20030;-90
2022/12/01 10:25:56;;;;;;;47.55;21.23;;;;;;;8.70;71.51;102743.34;5068909;28;20032;-90
2022/12/01 10:28:47;;;;;;;49.25;21.25;;;;;;;8.62;71.07;102727.53;5066253;28;20115;-89
2022/12/01 10:31:29;;;;;;;47.60;20.45;;;;;;;8.86;70.59;102731.91;5084726;28;20119;-89
2022/12/01 10:34:20;;;;;;;51.05;20.95;;;;;;;8.87;69.86;102720.47;5064449;28;20028;-90
2022/12/01 10:36:46;;;;;;;45.85;19.85;;;;;;;8.97;69.69;102725.72;5081006;28;20510;-90
2022/12/01 10:39:29;;;;;;;44.13;20.92;;;;;;;9.02;69.80;102724.81;5087676;28;20028;-90
2022/12/01 10:42:09;;;;;;;46.85;19.92;;;;;;;9.05;69.78;102719.53;5082483;28;20024;-89
2022/12/01 10:44:34;;;;;;;46.25;19.80;;;;;;;9.01;68.71;102709.88;5061394;28;20024;-90
2022/12/01 10:47:01;;;;;;;46.25;20.13;;;;;;;9.12;68.65;102721.25;5086115;28;20516;-90
2022/12/01 10:49:38;;;;;;;42.30;19.73;;;;;;;9.15;69.49;102723.03;5090945;28;20038;-90
2022/12/01 10:52:23;;;;;;;47.03;22.08;;;;;;;9.05;69.26;102708.13;5058909;28;20578;-90
2022/12/01 10:54:49;;;;;;;50.30;20.58;;;;;;;9.16;69.59;102717.72;5089266;28;20036;-90
2022/12/01 10:57:16;;;;;;;43.47;21.08;;;;;;;9.10;69.01;102708.97;5068631;28;20429;-90
2022/12/01 11:00:04;;;;;;;43.65;20.10;;;;;;;9.09;69.84;102701.91;5063560;28;20027;-90
2022/12/01 11:02:30;;;;;;;46.05;21.02;;;;;;;9.11;70.17;102710.72;5065013;28;20107;-90
2022/12/01 11:05:03;;;;;;;41.20;19.77;;;;;;;9.11;69.41;102714.22;5064492;28;20475;-90
2022/12/01 11:07:34;;;;;;;47.33;19.95;;;;;;;9.10;71.00;102706.34;5086220;28;20027;-90
2022/12/01 11:10:07;;;;;;;46.72;21.35;;;;;;;9.12;70.25;102710.69;5070809;28;20047;-90
2022/12/01 11:12:32;;;;;;;51.60;20.73;;;;;;;9.07;69.76;102709.84;5062315;28;20359;-89
2022/12/01 11:14:58;;;;;;;42.22;20.15;;;;;;;9.09;70.37;102705.47;5070268;28;20036;-90
2022/12/01 11:17:25;;;;;;;52.17;22.02;;;;;;;9.19;69.79;102708.94;5085704;28;20028;-90
2022/12/01 11:19:50;;;;;;;45.40;20.65;;;;;;;9.22;69.24;102702.75;5088897;28;20081;-90
2022/12/01 11:22:28;;;;;;;45.72;20.80;;;;;;;9.26;68.97;102707.13;5085884;28;20031;-90
2022/12/01 11:24:54;;;;;;;43.35;19.50;;;;;;;9.18;69.47;102708.03;5067239;28;20111;-89